Hovedside
METAR-TAF:

METAR-TAF

Lufthavner :

Kristiansand lufthavn. Kjevik

Kristiansand, Norge

breddegrad: 58-12N, lengdegrad: 008-05E, høyde over havet: 1 m

Gjeldene værobservasjon

Denne rapporten ble laget for 20 minutter siden, klokken 12:20 UTC
Vind 8 kt fra Sør
Temperatur 22°C
Luftfuktighet 50%
Trykk 1025 hPa
Sikt 10 km eller mer
ingen skyer under 1500 m og ingen bygeskyer

METAR: ENCN 231220Z 19008KT CAVOK 22/11 Q1025

Tid: 14:40 (12:40 UTC)

Varsel

Denne rapporten ble laget for 1 time og 40 minutter siden, klokken 11:00 UTC
Varsel gyldig fra 23. klokken 12 UTC til 23. klokken 21 UTC
Vind 10 kt fra Sør-sørvest
Sikt 10 km eller mer
ingen skyer under 1500 m og ingen bygeskyer
Blir
fra 23. klokken 18 UTC til 23. klokken 20 UTC
Vind 5 kt fra skiftende retning

TAF: ENCN 231100Z 2312/2321 20010KT CAVOK BECMG 2318/2320 VRB05KT

Værobservasjoner og værvarsel for over 4000 flyplasser (METAR- og TAF-rapporter).

Tilgjengelige stasjoner er representert av de røde og gule prikkene på kartet.

Hold musepekeren over prikken for å se navnet på stasjonen.

Klikk så for å se værobservasjoner og -varsler.

For å forandre kartet kan du klikke på den grønne knappen med svart kryss for å zoome inn, på den grønne knappen med strek for å zoome ut, eller på de grønne pilene for å se tilstøtende kart.


METAR-TAF: